Time;durP1;ratioP1;P1;durP2;ratioP2;P2;SDS_P1;SDS_P2;PMS_P1;PMS_P2;Temp;Humidity;BMP_temperature;BMP_pressure;BME280_temperature;BME280_humidity;BME280_pressure;Samples;Min_cycle;Max_cycle;Signal;HPM_P1;HPM_P2
2021/12/21 00:00:18;;;;;;;;;;;23.70;49.80;;;;;;1606551;73;692;-65
2021/12/21 00:02:20;;;;;;;;;;;23.80;49.90;;;;;;1608048;73;659;-65
2021/12/21 00:04:22;;;;;;;;;;;23.90;50.00;;;;;;1606724;73;641;-65
2021/12/21 00:06:24;;;;;;;;;;;23.80;49.90;;;;;;1611957;73;1150;-66
2021/12/21 00:08:26;;;;;;;;;;;23.80;49.90;;;;;;1596475;73;780;-67
2021/12/21 00:10:29;;;;;;;;;;;23.70;50.00;;;;;;1605506;73;1922;-65
2021/12/21 00:12:34;;;;;;;;;;;23.70;50.00;;;;;;1603788;73;836;-65
2021/12/21 00:14:47;;;;;;;;;;;23.70;50.00;;;;;;1607960;73;1608;-65
2021/12/21 00:17:04;;;;;;;;;;;23.70;50.00;;;;;;1609158;72;1684;-66
2021/12/21 00:19:09;;;;;;;;;;;23.70;50.00;;;;;;1599160;73;993;-65
2021/12/21 00:21:08;;;;;;;;;;;23.70;50.00;;;;;;1594422;73;1646;-65
2021/12/21 00:23:48;;;;;;;;;;;23.80;50.10;;;;;;1611660;72;1688;-65
2021/12/21 00:25:10;;;;;;;;;;;23.70;50.10;;;;;;1607373;73;1412;-64
2021/12/21 00:27:13;;;;;;;;;;;23.80;50.10;;;;;;1593798;73;1136;-64
2021/12/21 00:29:15;;;;;;;;;;;23.70;50.10;;;;;;1601425;73;868;-64
2021/12/21 00:31:17;;;;;;;;;;;23.80;50.10;;;;;;1600847;73;1908;-64
2021/12/21 00:33:19;;;;;;;;;;;23.80;50.00;;;;;;1590563;73;702;-64
2021/12/21 00:35:21;;;;;;;;;;;23.70;50.00;;;;;;1592703;73;751;-64
2021/12/21 00:37:27;;;;;;;;;;;23.70;50.10;;;;;;1594378;73;1129;-63
2021/12/21 00:39:26;;;;;;;;;;;23.70;50.10;;;;;;1604139;73;1853;-64
2021/12/21 00:41:28;;;;;;;;;;;23.70;50.10;;;;;;1604682;73;755;-65
2021/12/21 00:43:30;;;;;;;;;;;23.80;50.10;;;;;;1609457;73;832;-66
2021/12/21 00:45:32;;;;;;;;;;;23.80;50.10;;;;;;1609911;73;691;-65
2021/12/21 00:47:39;;;;;;;;;;;23.80;50.10;;;;;;1608314;73;1132;-65
2021/12/21 00:49:44;;;;;;;;;;;23.80;50.20;;;;;;1594312;73;1542;-64
2021/12/21 00:51:43;;;;;;;;;;;23.70;50.10;;;;;;1607251;73;1918;-63
2021/12/21 00:53:45;;;;;;;;;;;23.70;50.20;;;;;;1603412;73;1793;-61
2021/12/21 00:55:47;;;;;;;;;;;23.70;50.20;;;;;;1585290;73;706;-64
2021/12/21 00:57:48;;;;;;;;;;;23.80;50.20;;;;;;1601244;73;1121;-64
2021/12/21 00:59:50;;;;;;;;;;;23.70;50.20;;;;;;1607803;73;752;-64
2021/12/21 01:01:52;;;;;;;;;;;23.80;50.20;;;;;;1598317;73;778;-63
2021/12/21 01:03:56;;;;;;;;;;;23.80;50.20;;;;;;1597537;73;753;-65
2021/12/21 01:06:12;;;;;;;;;;;23.70;50.20;;;;;;1609403;73;1525;-64
2021/12/21 01:08:10;;;;;;;;;;;23.80;50.20;;;;;;1592444;73;1613;-64
2021/12/21 01:10:47;;;;;;;;;;;23.70;50.20;;;;;;1607104;73;1754;-64
2021/12/21 01:12:43;;;;;;;;;;;23.80;50.20;;;;;;1603104;72;1946;-67
2021/12/21 01:15:03;;;;;;;;;;;23.80;50.30;;;;;;1601764;73;1425;-65
2021/12/21 01:17:32;;;;;;;;;;;23.80;50.30;;;;;;1590157;73;1501;-65
2021/12/21 01:19:05;;;;;;;;;;;23.80;50.20;;;;;;1572043;74;1405;-64
2021/12/21 01:21:15;;;;;;;;;;;23.70;50.30;;;;;;1593025;73;1059;-65
2021/12/21 01:23:39;;;;;;;;;;;23.70;50.30;;;;;;1600396;73;1680;-64
2021/12/21 01:27:55;;;;;;;;;;;23.80;50.40;;;;;;1607153;73;1605;-67
2021/12/21 01:30:07;;;;;;;;;;;23.80;50.40;;;;;;1606495;73;1668;-65
2021/12/21 01:32:24;;;;;;;;;;;23.80;50.50;;;;;;1608940;72;1918;-64
2021/12/21 01:36:49;;;;;;;;;;;23.90;50.50;;;;;;1559876;74;1249;-64
2021/12/21 01:38:59;;;;;;;;;;;23.90;50.60;;;;;;1606642;73;1644;-65
2021/12/21 01:40:54;;;;;;;;;;;23.90;50.70;;;;;;1606170;73;1896;-63
2021/12/21 01:49:52;;;;;;;;;;;23.80;50.60;;;;;;1607596;73;1610;-62
2021/12/21 01:51:51;;;;;;;;;;;23.90;50.70;;;;;;1599994;73;1925;-64
2021/12/21 01:53:53;;;;;;;;;;;23.80;50.60;;;;;;1607073;73;643;-63
2021/12/21 01:55:56;;;;;;;;;;;23.90;50.60;;;;;;1608561;73;717;-66
2021/12/21 01:57:58;;;;;;;;;;;23.90;50.60;;;;;;1605500;73;859;-65
2021/12/21 02:00:00;;;;;;;;;;;23.90;50.60;;;;;;1604992;73;706;-62
2021/12/21 02:02:02;;;;;;;;;;;23.90;50.50;;;;;;1605807;73;764;-64
2021/12/21 02:04:04;;;;;;;;;;;23.90;50.50;;;;;;1600435;73;676;-63
2021/12/21 02:06:06;;;;;;;;;;;23.90;50.40;;;;;;1610512;73;1136;-63
2021/12/21 02:08:07;;;;;;;;;;;23.90;50.50;;;;;;1605237;73;771;-64
2021/12/21 02:10:09;;;;;;;;;;;23.90;50.40;;;;;;1624905;71;2154;-69
2021/12/21 02:12:18;;;;;;;;;;;23.90;50.30;;;;;;1626250;72;1935;-68
2021/12/21 02:14:20;;;;;;;;;;;23.90;50.30;;;;;;1629309;72;730;-69
2021/12/21 02:16:34;;;;;;;;;;;23.90;50.20;;;;;;1629792;72;798;-67
2021/12/21 02:18:38;;;;;;;;;;;23.90;50.30;;;;;;1628829;72;1546;-67
2021/12/21 02:22:45;;;;;;;;;;;23.90;50.30;;;;;;1590228;73;858;-68
2021/12/21 02:24:57;;;;;;;;;;;23.90;50.40;;;;;;1587117;73;1000;-69
2021/12/21 02:27:05;;;;;;;;;;;23.90;50.40;;;;;;1601231;73;1227;-70
2021/12/21 02:31:16;;;;;;;;;;;23.90;50.40;;;;;;1604114;73;1913;-68
2021/12/21 02:33:18;;;;;;;;;;;23.90;50.50;;;;;;1611988;73;757;-69
2021/12/21 02:35:20;;;;;;;;;;;23.90;50.50;;;;;;1600583;73;764;-68
2021/12/21 02:37:22;;;;;;;;;;;23.90;50.50;;;;;;1610531;73;780;-69
2021/12/21 02:39:24;;;;;;;;;;;23.90;50.50;;;;;;1599751;73;1131;-69
2021/12/21 02:41:26;;;;;;;;;;;23.90;50.50;;;;;;1596779;73;742;-69
2021/12/21 02:43:28;;;;;;;;;;;23.90;50.50;;;;;;1594035;73;661;-69
2021/12/21 02:45:30;;;;;;;;;;;23.90;50.50;;;;;;1609124;73;735;-68
2021/12/21 02:47:32;;;;;;;;;;;24.00;50.50;;;;;;1601183;73;700;-69
2021/12/21 02:49:34;;;;;;;;;;;23.90;50.50;;;;;;1605121;73;1103;-68
2021/12/21 02:51:40;;;;;;;;;;;24.00;50.60;;;;;;1606864;73;1932;-68
2021/12/21 02:53:44;;;;;;;;;;;23.90;50.60;;;;;;1608059;73;773;-68
2021/12/21 02:55:45;;;;;;;;;;;24.00;50.60;;;;;;1609737;73;1138;-68
2021/12/21 02:57:47;;;;;;;;;;;24.00;50.60;;;;;;1604468;73;734;-69
2021/12/21 02:59:49;;;;;;;;;;;23.90;50.70;;;;;;1595549;73;1187;-68
2021/12/21 03:01:51;;;;;;;;;;;24.00;50.70;;;;;;1595734;73;720;-67
2021/12/21 03:03:53;;;;;;;;;;;23.90;50.60;;;;;;1590145;73;728;-67
2021/12/21 03:05:57;;;;;;;;;;;24.00;50.70;;;;;;1605793;73;771;-68
2021/12/21 03:08:17;;;;;;;;;;;23.90;50.70;;;;;;1596069;73;1127;-68
2021/12/21 03:10:16;;;;;;;;;;;24.00;50.70;;;;;;1581145;73;1152;-68
2021/12/21 03:14:25;;;;;;;;;;;23.90;50.80;;;;;;1599802;73;811;-69
2021/12/21 03:16:26;;;;;;;;;;;24.00;50.80;;;;;;1596519;73;690;-69
2021/12/21 03:18:28;;;;;;;;;;;24.00;50.80;;;;;;1607821;73;746;-70
2021/12/21 03:20:30;;;;;;;;;;;24.00;50.80;;;;;;1599900;72;1153;-69
2021/12/21 03:22:32;;;;;;;;;;;24.00;50.80;;;;;;1590877;73;715;-70
2021/12/21 03:24:34;;;;;;;;;;;24.00;51.00;;;;;;1593130;73;709;-68
2021/12/21 03:26:36;;;;;;;;;;;24.00;50.90;;;;;;1611554;73;689;-68
2021/12/21 03:28:38;;;;;;;;;;;24.00;50.90;;;;;;1604284;73;745;-67
2021/12/21 03:30:40;;;;;;;;;;;24.10;51.00;;;;;;1605276;73;1107;-66
2021/12/21 03:32:42;;;;;;;;;;;24.00;51.00;;;;;;1587092;73;1932;-69
2021/12/21 03:34:44;;;;;;;;;;;24.00;50.90;;;;;;1590994;73;707;-68
2021/12/21 03:36:46;;;;;;;;;;;24.10;51.00;;;;;;1606113;73;726;-68
2021/12/21 03:39:04;;;;;;;;;;;24.10;51.00;;;;;;1596387;73;821;-68
2021/12/21 03:40:54;;;;;;;;;;;24.20;50.90;;;;;;1594149;73;1552;-68
2021/12/21 03:42:55;;;;;;;;;;;24.20;50.90;;;;;;1596049;73;738;-65
2021/12/21 03:44:58;;;;;;;;;;;24.20;50.70;;;;;;1607992;73;725;-69
2021/12/21 03:47:00;;;;;;;;;;;24.30;50.80;;;;;;1592143;73;732;-69
2021/12/21 03:49:15;;;;;;;;;;;24.20;50.70;;;;;;1589522;73;1149;-69
2021/12/21 03:51:05;;;;;;;;;;;24.20;50.80;;;;;;1613570;73;1702;-69
2021/12/21 03:53:07;;;;;;;;;;;24.20;50.80;;;;;;1590262;73;1941;-68
2021/12/21 03:55:09;;;;;;;;;;;24.10;51.00;;;;;;1588230;73;662;-67
2021/12/21 03:57:11;;;;;;;;;;;24.20;51.00;;;;;;1592169;73;776;-68
2021/12/21 03:59:13;;;;;;;;;;;24.20;51.00;;;;;;1596713;73;1192;-68
2021/12/21 04:01:15;;;;;;;;;;;24.10;51.00;;;;;;1594655;73;732;-68
2021/12/21 04:03:17;;;;;;;;;;;24.10;51.00;;;;;;1600740;73;907;-68
2021/12/21 04:05:19;;;;;;;;;;;24.20;50.80;;;;;;1600529;73;802;-69
2021/12/21 04:07:21;;;;;;;;;;;24.20;50.60;;;;;;1590467;73;736;-67
2021/12/21 04:09:23;;;;;;;;;;;24.30;50.50;;;;;;1588355;73;1171;-68
2021/12/21 04:11:24;;;;;;;;;;;24.30;50.50;;;;;;1589828;73;722;-67
2021/12/21 04:13:27;;;;;;;;;;;24.30;50.50;;;;;;1584465;73;1946;-67
2021/12/21 04:15:32;;;;;;;;;;;24.30;50.40;;;;;;1596988;73;765;-67
2021/12/21 04:17:32;;;;;;;;;;;24.40;50.30;;;;;;1594260;73;1594;-66
2021/12/21 04:19:34;;;;;;;;;;;24.30;50.30;;;;;;1598589;73;1139;-67
2021/12/21 04:21:36;;;;;;;;;;;24.40;50.30;;;;;;1587947;73;831;-67
2021/12/21 04:23:39;;;;;;;;;;;24.30;50.30;;;;;;1588588;73;742;-71
2021/12/21 04:25:41;;;;;;;;;;;24.30;50.30;;;;;;1599546;73;687;-65
2021/12/21 04:27:43;;;;;;;;;;;24.30;50.30;;;;;;1599836;73;750;-66
2021/12/21 04:29:45;;;;;;;;;;;24.30;50.30;;;;;;1611355;72;1140;-67
2021/12/21 04:31:48;;;;;;;;;;;24.30;50.20;;;;;;1605797;73;1932;-68
2021/12/21 04:33:50;;;;;;;;;;;24.20;50.20;;;;;;1602927;73;763;-66
2021/12/21 04:35:51;;;;;;;;;;;24.20;50.20;;;;;;1606196;73;759;-66
2021/12/21 04:37:58;;;;;;;;;;;24.30;50.40;;;;;;1608174;73;710;-66
2021/12/21 04:40:05;;;;;;;;;;;24.30;50.20;;;;;;1614860;73;1155;-68
2021/12/21 04:42:04;;;;;;;;;;;24.40;50.20;;;;;;1589219;73;1706;-66
2021/12/21 04:44:05;;;;;;;;;;;24.40;50.10;;;;;;1591843;73;867;-67
2021/12/21 04:46:07;;;;;;;;;;;24.30;50.10;;;;;;1592920;73;787;-69
2021/12/21 04:48:09;;;;;;;;;;;24.30;50.00;;;;;;1595598;73;737;-67
2021/12/21 04:50:11;;;;;;;;;;;24.40;50.00;;;;;;1595727;73;1156;-64
2021/12/21 04:52:13;;;;;;;;;;;24.30;50.00;;;;;;1601075;73;1937;-66
2021/12/21 04:54:15;;;;;;;;;;;24.20;50.00;;;;;;1594262;73;799;-65
2021/12/21 04:56:17;;;;;;;;;;;24.30;50.10;;;;;;1590899;73;726;-66
2021/12/21 04:58:19;;;;;;;;;;;24.40;50.00;;;;;;1600888;73;707;-67
2021/12/21 05:00:21;;;;;;;;;;;24.30;50.00;;;;;;1608056;73;1193;-66
2021/12/21 05:02:23;;;;;;;;;;;24.30;50.00;;;;;;1593745;73;679;-66
2021/12/21 05:04:25;;;;;;;;;;;24.30;50.00;;;;;;1592129;73;738;-68
2021/12/21 05:06:27;;;;;;;;;;;24.40;49.80;;;;;;1600326;73;673;-66
2021/12/21 05:08:38;;;;;;;;;;;24.40;49.80;;;;;;1596142;73;783;-65
2021/12/21 05:10:47;;;;;;;;;;;24.40;49.80;;;;;;1595710;73;1630;-67
2021/12/21 05:12:43;;;;;;;;;;;24.40;49.70;;;;;;1586848;73;1917;-67
2021/12/21 05:14:45;;;;;;;;;;;24.40;49.70;;;;;;1587920;73;727;-68
2021/12/21 05:16:47;;;;;;;;;;;24.40;49.70;;;;;;1600257;73;749;-67
2021/12/21 05:18:49;;;;;;;;;;;24.40;49.60;;;;;;1591359;73;799;-69
2021/12/21 05:20:51;;;;;;;;;;;24.40;49.80;;;;;;1599959;73;1059;-67
2021/12/21 05:22:53;;;;;;;;;;;24.20;49.80;;;;;;1598217;73;732;-67
2021/12/21 05:24:55;;;;;;;;;;;24.30;50.00;;;;;;1600788;73;773;-67
2021/12/21 05:26:56;;;;;;;;;;;24.30;50.10;;;;;;1597416;73;738;-66
2021/12/21 05:28:58;;;;;;;;;;;24.30;50.10;;;;;;1600997;73;1158;-67
2021/12/21 05:31:00;;;;;;;;;;;24.20;49.90;;;;;;1594973;73;1058;-67
2021/12/21 05:33:02;;;;;;;;;;;24.30;50.00;;;;;;1600108;73;1938;-66
2021/12/21 05:35:04;;;;;;;;;;;24.30;49.80;;;;;;1600531;73;775;-64
2021/12/21 05:37:07;;;;;;;;;;;24.40;49.70;;;;;;1600217;73;746;-65
2021/12/21 05:39:18;;;;;;;;;;;24.40;49.50;;;;;;1600295;73;1143;-70
2021/12/21 05:41:22;;;;;;;;;;;24.40;49.50;;;;;;1587085;73;1564;-65
2021/12/21 05:43:16;;;;;;;;;;;24.30;49.60;;;;;;1594333;73;1619;-66
2021/12/21 05:45:18;;;;;;;;;;;24.40;49.60;;;;;;1598167;73;743;-66
2021/12/21 05:47:20;;;;;;;;;;;24.40;49.50;;;;;;1596136;73;723;-66
2021/12/21 05:49:22;;;;;;;;;;;24.40;49.40;;;;;;1597213;73;1146;-65
2021/12/21 05:51:24;;;;;;;;;;;24.40;49.30;;;;;;1594896;73;672;-67
2021/12/21 05:53:26;;;;;;;;;;;24.40;49.30;;;;;;1600995;73;1929;-68
2021/12/21 05:55:27;;;;;;;;;;;24.40;49.30;;;;;;1601633;73;798;-65
2021/12/21 05:57:29;;;;;;;;;;;24.40;49.30;;;;;;1594675;73;705;-64
2021/12/21 05:59:31;;;;;;;;;;;24.50;49.30;;;;;;1594953;73;1174;-65
2021/12/21 06:01:33;;;;;;;;;;;24.40;49.30;;;;;;1596811;73;702;-66
2021/12/21 06:03:35;;;;;;;;;;;24.40;49.30;;;;;;1592999;73;704;-66
2021/12/21 06:05:37;;;;;;;;;;;24.40;49.30;;;;;;1601378;73;745;-65
2021/12/21 06:07:39;;;;;;;;;;;24.40;49.20;;;;;;1592655;73;668;-68
2021/12/21 06:09:43;;;;;;;;;;;24.40;49.30;;;;;;1581856;73;1155;-67
2021/12/21 06:11:53;;;;;;;;;;;24.40;49.20;;;;;;1589764;73;1630;-64
2021/12/21 06:14:09;;;;;;;;;;;24.40;49.20;;;;;;1584181;73;2163;-63
2021/12/21 06:16:10;;;;;;;;;;;24.40;49.20;;;;;;1587399;73;1758;-66
2021/12/21 06:22:48;;;;;;;;;;;24.20;49.60;;;;;;1587423;73;1673;-64
2021/12/21 06:27:08;;;;;;;;;;;24.10;50.10;;;;;;1600285;73;1665;-67
2021/12/21 06:29:10;;;;;;;;;;;24.20;50.30;;;;;;1597985;73;1174;-66
2021/12/21 06:31:12;;;;;;;;;;;24.20;50.00;;;;;;1605039;73;758;-68
2021/12/21 06:33:14;;;;;;;;;;;24.30;50.00;;;;;;1591756;73;1914;-68
2021/12/21 06:35:16;;;;;;;;;;;24.30;50.00;;;;;;1592167;73;706;-66
2021/12/21 06:37:18;;;;;;;;;;;24.20;50.00;;;;;;1595990;73;789;-68
2021/12/21 06:39:20;;;;;;;;;;;24.20;50.00;;;;;;1600197;73;1142;-63
2021/12/21 06:41:22;;;;;;;;;;;24.20;50.00;;;;;;1593144;73;791;-65
2021/12/21 06:43:24;;;;;;;;;;;24.30;50.10;;;;;;1600786;73;749;-65
2021/12/21 06:52:22;;;;;;;;;;;24.20;50.00;;;;;;1588589;73;1626;-67
2021/12/21 06:54:24;;;;;;;;;;;24.20;50.00;;;;;;1602186;73;1916;-66
2021/12/21 06:56:26;;;;;;;;;;;24.20;50.00;;;;;;1613853;73;710;-68
2021/12/21 06:58:28;;;;;;;;;;;24.10;49.90;;;;;;1606989;73;606;-67
2021/12/21 07:00:30;;;;;;;;;;;24.10;49.80;;;;;;1595652;73;1095;-61
2021/12/21 07:02:32;;;;;;;;;;;24.20;49.80;;;;;;1591938;73;712;-66
2021/12/21 07:04:34;;;;;;;;;;;24.10;49.70;;;;;;1593302;73;801;-66
2021/12/21 07:06:37;;;;;;;;;;;24.00;49.50;;;;;;1604200;73;811;-65
2021/12/21 07:18:09;;;;;;;;;;;24.00;49.50;;;;;;1526959;76;1665;-65
2021/12/21 07:20:02;;;;;;;;;;;24.00;49.40;;;;;;1567572;74;1651;-64
2021/12/21 07:22:04;;;;;;;;;;;23.90;49.50;;;;;;1530221;76;713;-67
2021/12/21 07:24:06;;;;;;;;;;;23.90;49.50;;;;;;1537319;76;651;-66
2021/12/21 07:26:08;;;;;;;;;;;23.90;49.40;;;;;;1545639;75;767;-67
2021/12/21 07:28:10;;;;;;;;;;;23.90;49.40;;;;;;1567790;74;771;-66
2021/12/21 07:30:12;;;;;;;;;;;23.90;49.40;;;;;;1545247;75;1200;-67
2021/12/21 07:32:14;;;;;;;;;;;23.90;49.40;;;;;;1572042;74;786;-68
2021/12/21 07:34:16;;;;;;;;;;;23.90;49.40;;;;;;1557652;75;1944;-66
2021/12/21 07:36:18;;;;;;;;;;;23.90;49.40;;;;;;1528439;76;767;-66
2021/12/21 07:38:22;;;;;;;;;;;23.90;49.40;;;;;;1542339;75;730;-62
2021/12/21 07:40:23;;;;;;;;;;;23.90;49.30;;;;;;1572560;74;1155;-67
2021/12/21 07:42:25;;;;;;;;;;;23.90;49.30;;;;;;1541779;75;695;-67
2021/12/21 07:44:27;;;;;;;;;;;23.90;49.30;;;;;;1545972;75;714;-68
2021/12/21 07:46:29;;;;;;;;;;;23.90;49.30;;;;;;1542402;75;762;-68
2021/12/21 07:48:31;;;;;;;;;;;23.90;49.30;;;;;;1545103;75;749;-66
2021/12/21 07:50:33;;;;;;;;;;;23.80;49.20;;;;;;1539025;75;1135;-66
2021/12/21 07:52:35;;;;;;;;;;;23.90;49.30;;;;;;1547808;75;735;-66
2021/12/21 07:54:36;;;;;;;;;;;23.90;49.30;;;;;;1547026;75;1939;-67
2021/12/21 07:56:38;;;;;;;;;;;23.90;49.30;;;;;;1543418;75;724;-66
2021/12/21 07:58:40;;;;;;;;;;;23.80;49.20;;;;;;1545637;75;729;-65
2021/12/21 08:00:42;;;;;;;;;;;23.80;49.20;;;;;;1572348;74;1125;-67
2021/12/21 08:02:44;;;;;;;;;;;23.90;49.30;;;;;;1586990;74;669;-68
2021/12/21 08:04:47;;;;;;;;;;;23.80;49.20;;;;;;1549540;75;727;-68
2021/12/21 08:06:51;;;;;;;;;;;23.80;49.20;;;;;;1574607;74;710;-67
2021/12/21 08:08:53;;;;;;;;;;;23.80;49.20;;;;;;1553318;75;708;-67
2021/12/21 08:11:09;;;;;;;;;;;23.80;49.20;;;;;;1591341;73;1111;-66
2021/12/21 08:12:59;;;;;;;;;;;23.80;49.20;;;;;;1537688;75;1931;-67
2021/12/21 08:15:01;;;;;;;;;;;23.90;49.30;;;;;;1564170;74;717;-67
2021/12/21 08:17:03;;;;;;;;;;;23.80;49.20;;;;;;1568330;74;610;-68
2021/12/21 08:19:05;;;;;;;;;;;23.80;49.20;;;;;;1545399;75;1145;-70
2021/12/21 08:21:06;;;;;;;;;;;23.80;49.20;;;;;;1544865;75;735;-67
2021/12/21 08:23:08;;;;;;;;;;;23.80;49.10;;;;;;1547395;75;681;-66
2021/12/21 08:25:11;;;;;;;;;;;23.80;49.10;;;;;;1563352;74;721;-66
2021/12/21 08:27:12;;;;;;;;;;;23.80;49.10;;;;;;1531799;76;723;-67
2021/12/21 08:29:14;;;;;;;;;;;23.80;49.10;;;;;;1540613;75;1158;-66
2021/12/21 08:31:16;;;;;;;;;;;23.80;49.10;;;;;;1564432;74;690;-66
2021/12/21 08:33:18;;;;;;;;;;;23.80;49.10;;;;;;1537755;76;1940;-68
2021/12/21 08:35:20;;;;;;;;;;;23.80;49.10;;;;;;1545974;75;717;-68
2021/12/21 08:37:22;;;;;;;;;;;23.90;49.20;;;;;;1583440;74;734;-66
2021/12/21 08:39:24;;;;;;;;;;;23.90;49.20;;;;;;1581464;73;1147;-66
2021/12/21 08:41:27;;;;;;;;;;;23.80;49.10;;;;;;1586140;74;745;-68
2021/12/21 08:43:31;;;;;;;;;;;23.90;49.20;;;;;;1537914;76;739;-66
2021/12/21 08:45:33;;;;;;;;;;;23.80;49.10;;;;;;1545760;75;1466;-66
2021/12/21 08:47:35;;;;;;;;;;;23.90;49.20;;;;;;1559344;74;694;-68
2021/12/21 08:49:37;;;;;;;;;;;23.90;49.10;;;;;;1550574;75;1089;-68
2021/12/21 08:51:38;;;;;;;;;;;23.90;49.10;;;;;;1554465;75;740;-66
2021/12/21 08:53:42;;;;;;;;;;;23.80;49.00;;;;;;1559510;74;1953;-67
2021/12/21 08:55:44;;;;;;;;;;;23.80;49.00;;;;;;1587894;74;849;-65
2021/12/21 08:57:46;;;;;;;;;;;23.90;49.00;;;;;;1575292;74;722;-66
2021/12/21 08:59:48;;;;;;;;;;;23.90;49.10;;;;;;1537865;76;1153;-68
2021/12/21 09:01:51;;;;;;;;;;;23.90;49.00;;;;;;1572522;74;740;-69
2021/12/21 09:03:54;;;;;;;;;;;23.90;49.00;;;;;;1568699;74;1938;-66
2021/12/21 09:05:56;;;;;;;;;;;23.90;48.90;;;;;;1580677;74;717;-65
2021/12/21 09:07:58;;;;;;;;;;;23.80;48.90;;;;;;1555325;75;775;-68
2021/12/21 09:10:00;;;;;;;;;;;23.90;49.00;;;;;;1549160;75;1171;-67
2021/12/21 09:12:02;;;;;;;;;;;23.90;48.90;;;;;;1572293;74;751;-69
2021/12/21 09:14:04;;;;;;;;;;;23.90;48.90;;;;;;1531309;76;1934;-68
2021/12/21 09:16:06;;;;;;;;;;;23.90;48.90;;;;;;1575188;74;702;-67
2021/12/21 09:18:07;;;;;;;;;;;23.90;48.90;;;;;;1541325;75;711;-67
2021/12/21 09:20:10;;;;;;;;;;;23.90;48.90;;;;;;1540680;75;1132;-66
2021/12/21 09:22:12;;;;;;;;;;;23.90;48.90;;;;;;1561800;74;717;-66
2021/12/21 09:24:14;;;;;;;;;;;23.90;48.80;;;;;;1545475;76;758;-66
2021/12/21 09:26:15;;;;;;;;;;;23.90;48.90;;;;;;1542679;75;763;-67
2021/12/21 09:28:17;;;;;;;;;;;23.90;48.80;;;;;;1573778;74;653;-67
2021/12/21 09:30:20;;;;;;;;;;;23.90;48.80;;;;;;1536775;76;1133;-68
2021/12/21 09:32:22;;;;;;;;;;;23.90;48.80;;;;;;1541445;75;716;-66
2021/12/21 09:34:23;;;;;;;;;;;23.90;48.80;;;;;;1572642;74;1922;-68
2021/12/21 09:36:26;;;;;;;;;;;23.90;48.80;;;;;;1539676;76;827;-69
2021/12/21 09:38:28;;;;;;;;;;;23.90;48.80;;;;;;1538078;76;692;-67
2021/12/21 09:40:30;;;;;;;;;;;23.90;48.80;;;;;;1535211;76;1142;-67
2021/12/21 09:42:32;;;;;;;;;;;23.90;48.70;;;;;;1547633;75;818;-67
2021/12/21 09:44:34;;;;;;;;;;;23.90;48.70;;;;;;1580471;74;816;-70
2021/12/21 09:46:36;;;;;;;;;;;23.90;48.70;;;;;;1573096;74;691;-66
2021/12/21 09:48:37;;;;;;;;;;;23.90;48.80;;;;;;1572608;74;751;-66
2021/12/21 09:50:41;;;;;;;;;;;23.90;48.70;;;;;;1551517;75;1177;-69
2021/12/21 09:52:43;;;;;;;;;;;23.90;48.80;;;;;;1579149;74;711;-68
2021/12/21 09:54:45;;;;;;;;;;;23.90;48.80;;;;;;1532800;76;1910;-67
2021/12/21 09:56:47;;;;;;;;;;;23.90;48.80;;;;;;1539837;76;795;-67
2021/12/21 09:58:49;;;;;;;;;;;23.90;48.80;;;;;;1538487;76;756;-68
2021/12/21 10:00:51;;;;;;;;;;;23.90;48.80;;;;;;1548728;75;1082;-69
2021/12/21 10:03:01;;;;;;;;;;;23.80;48.70;;;;;;1568602;74;714;-67
2021/12/21 10:04:57;;;;;;;;;;;23.90;48.80;;;;;;1541130;75;1129;-66
2021/12/21 10:07:00;;;;;;;;;;;23.90;48.80;;;;;;1569722;74;730;-68
2021/12/21 10:09:08;;;;;;;;;;;23.90;48.80;;;;;;1532826;76;1168;-67
2021/12/21 10:11:11;;;;;;;;;;;23.80;48.70;;;;;;1538471;76;720;-67
2021/12/21 10:13:18;;;;;;;;;;;23.80;48.70;;;;;;1536790;75;1006;-67
2021/12/21 10:15:23;;;;;;;;;;;23.90;48.80;;;;;;1545833;75;1915;-68
2021/12/21 10:17:25;;;;;;;;;;;23.90;48.80;;;;;;1581814;74;707;-66
2021/12/21 10:19:27;;;;;;;;;;;23.90;48.80;;;;;;1572324;74;1137;-67
2021/12/21 10:21:29;;;;;;;;;;;23.90;48.80;;;;;;1573058;74;772;-66
2021/12/21 10:23:31;;;;;;;;;;;23.90;48.70;;;;;;1561715;75;598;-67
2021/12/21 10:25:33;;;;;;;;;;;23.90;48.70;;;;;;1563686;74;711;-67
2021/12/21 10:27:37;;;;;;;;;;;23.90;48.70;;;;;;1572541;74;689;-67
2021/12/21 10:29:42;;;;;;;;;;;23.90;48.70;;;;;;1571423;74;1114;-67
2021/12/21 10:31:46;;;;;;;;;;;23.90;48.70;;;;;;1533118;75;710;-66
2021/12/21 10:33:48;;;;;;;;;;;23.90;48.70;;;;;;1571342;74;1924;-66
2021/12/21 10:35:50;;;;;;;;;;;23.90;48.60;;;;;;1566375;74;768;-66
2021/12/21 10:37:52;;;;;;;;;;;23.90;48.60;;;;;;1543352;75;949;-66
2021/12/21 10:40:05;;;;;;;;;;;23.90;48.70;;;;;;1576815;75;1097;-67
2021/12/21 10:42:08;;;;;;;;;;;23.90;48.60;;;;;;1570523;75;714;-67
2021/12/21 10:44:11;;;;;;;;;;;23.90;48.70;;;;;;1546561;75;697;-65
2021/12/21 10:46:13;;;;;;;;;;;23.90;48.70;;;;;;1567270;74;1038;-64
2021/12/21 10:48:19;;;;;;;;;;;23.90;48.70;;;;;;1549698;75;791;-64
2021/12/21 10:50:19;;;;;;;;;;;23.90;48.60;;;;;;1570451;74;1163;-66
2021/12/21 10:52:21;;;;;;;;;;;23.90;48.60;;;;;;1539152;75;778;-66
2021/12/21 10:54:30;;;;;;;;;;;23.90;48.60;;;;;;1527641;76;1937;-67
2021/12/21 10:56:32;;;;;;;;;;;23.90;48.60;;;;;;1537995;75;719;-64
2021/12/21 10:58:35;;;;;;;;;;;23.90;48.60;;;;;;1533788;76;1193;-65
2021/12/21 11:00:38;;;;;;;;;;;23.90;48.60;;;;;;1541384;75;1796;-66
2021/12/21 11:02:40;;;;;;;;;;;23.90;48.60;;;;;;1531720;76;689;-66
2021/12/21 11:04:42;;;;;;;;;;;23.90;48.60;;;;;;1572497;74;707;-68
2021/12/21 11:06:49;;;;;;;;;;;23.90;48.50;;;;;;1577418;74;725;-66
2021/12/21 11:08:49;;;;;;;;;;;23.90;48.50;;;;;;1556419;74;1124;-67
2021/12/21 11:10:51;;;;;;;;;;;23.90;48.50;;;;;;1567857;74;1102;-66
2021/12/21 11:12:58;;;;;;;;;;;23.90;48.50;;;;;;1565734;74;749;-69
2021/12/21 11:15:01;;;;;;;;;;;23.90;48.60;;;;;;1563027;74;1949;-69
2021/12/21 11:17:04;;;;;;;;;;;24.00;48.60;;;;;;1555825;75;687;-67
2021/12/21 11:19:06;;;;;;;;;;;24.00;48.60;;;;;;1557126;75;1117;-69
2021/12/21 11:21:09;;;;;;;;;;;24.00;48.50;;;;;;1566354;74;713;-69
2021/12/21 11:23:12;;;;;;;;;;;24.10;48.60;;;;;;1549157;76;645;-66
2021/12/21 11:25:14;;;;;;;;;;;24.10;48.50;;;;;;1543604;75;672;-67
2021/12/21 11:27:16;;;;;;;;;;;24.10;48.50;;;;;;1581576;74;598;-68
2021/12/21 11:29:19;;;;;;;;;;;24.20;48.60;;;;;;1540211;76;1091;-70
2021/12/21 11:31:21;;;;;;;;;;;24.20;48.60;;;;;;1572450;74;629;-69
2021/12/21 11:33:24;;;;;;;;;;;24.10;48.60;;;;;;1585469;74;773;-70
2021/12/21 11:37:31;;;;;;;;;;;24.10;48.60;;;;;;1582777;74;847;-70
2021/12/21 11:39:33;;;;;;;;;;;24.10;48.60;;;;;;1534549;76;1142;-69
2021/12/21 11:41:35;;;;;;;;;;;24.20;48.60;;;;;;1537732;76;726;-69
2021/12/21 11:43:39;;;;;;;;;;;24.20;48.60;;;;;;1553581;75;751;-69
2021/12/21 11:45:51;;;;;;;;;;;24.20;48.70;;;;;;1580355;74;725;-67
2021/12/21 11:48:13;;;;;;;;;;;24.20;48.60;;;;;;1581648;74;688;-67
2021/12/21 11:50:15;;;;;;;;;;;24.20;48.60;;;;;;1583941;74;1089;-71
2021/12/21 11:52:18;;;;;;;;;;;24.20;48.60;;;;;;1579714;74;693;-68
2021/12/21 11:54:22;;;;;;;;;;;24.20;48.50;;;;;;1535090;76;1933;-68
2021/12/21 11:56:25;;;;;;;;;;;24.20;48.40;;;;;;1547649;76;710;-69
2021/12/21 11:58:28;;;;;;;;;;;24.30;48.60;;;;;;1578092;74;684;-68
2021/12/21 12:00:31;;;;;;;;;;;24.20;48.40;;;;;;1581583;73;1221;-69
2021/12/21 12:02:33;;;;;;;;;;;24.20;48.40;;;;;;1538341;76;756;-69
2021/12/21 12:04:35;;;;;;;;;;;24.30;48.60;;;;;;1553949;75;712;-70
2021/12/21 12:06:45;;;;;;;;;;;24.20;48.40;;;;;;1582013;74;727;-68
2021/12/21 12:08:49;;;;;;;;;;;24.30;48.60;;;;;;1544201;75;734;-68
2021/12/21 12:10:54;;;;;;;;;;;24.30;48.50;;;;;;1573070;74;1090;-68
2021/12/21 12:12:56;;;;;;;;;;;24.30;48.60;;;;;;1526905;76;641;-67
2021/12/21 12:15:01;;;;;;;;;;;24.30;48.50;;;;;;1543524;76;1937;-67
2021/12/21 12:17:05;;;;;;;;;;;24.30;48.40;;;;;;1581430;74;706;-66
2021/12/21 12:19:10;;;;;;;;;;;24.20;48.20;;;;;;1572115;74;1185;-66
2021/12/21 12:21:17;;;;;;;;;;;24.20;48.20;;;;;;1566936;74;782;-67
2021/12/21 12:23:19;;;;;;;;;;;24.10;48.30;;;;;;1573638;74;774;-67
2021/12/21 12:25:22;;;;;;;;;;;24.10;48.30;;;;;;1539179;76;745;-67
2021/12/21 12:27:28;;;;;;;;;;;24.10;48.30;;;;;;1534680;76;704;-68
2021/12/21 12:29:30;;;;;;;;;;;24.20;48.30;;;;;;1535703;76;1142;-66
2021/12/21 12:31:33;;;;;;;;;;;24.00;48.20;;;;;;1572480;74;788;-65
2021/12/21 12:33:39;;;;;;;;;;;24.00;48.10;;;;;;1570549;74;793;-66
2021/12/21 12:35:42;;;;;;;;;;;24.00;48.10;;;;;;1527819;75;1932;-62
2021/12/21 12:37:48;;;;;;;;;;;24.00;48.10;;;;;;1577754;74;698;-70
2021/12/21 12:39:50;;;;;;;;;;;24.00;48.10;;;;;;1533975;76;1169;-65
2021/12/21 12:41:52;;;;;;;;;;;24.00;48.10;;;;;;1545927;75;734;-65
2021/12/21 12:43:54;;;;;;;;;;;24.00;48.10;;;;;;1573090;74;731;-63
2021/12/21 12:46:02;;;;;;;;;;;24.10;48.20;;;;;;1546327;75;715;-65
2021/12/21 12:48:01;;;;;;;;;;;24.00;48.10;;;;;;1567066;74;1483;-67
2021/12/21 12:50:03;;;;;;;;;;;24.00;48.10;;;;;;1556035;75;1232;-66
2021/12/21 12:52:18;;;;;;;;;;;24.00;48.10;;;;;;1559316;76;1227;-64
2021/12/21 12:54:21;;;;;;;;;;;24.00;48.10;;;;;;1540384;77;727;-66
2021/12/21 12:56:25;;;;;;;;;;;24.00;48.10;;;;;;1532130;76;1912;-63